Airfield :
LOGIN :

Register | Disclaimer

   EN    FR    IT 

 










Legend :    VFR   Marginal VFR   IFR   Intensive IFR   Very Intensive IFR
Visi :
Ceiling :
>= 8 km
>= 3000ft
5 to 8 km
1000 to 3000 ft
1500m to 5 km
500 to 1000 ft
800 to 1500m
200 to 500 ft
< 800m
< 200 ft
Symbols :   Thunderstorms  Fog  Heavy snow  Heavy precipitations  Wind > 20 kt
SIGMETs :     Misc.  Thunderstorms  Icing  Turbulence  Mountain Waves  Volcanic Ashes






- Airport Elevation : 13 ft
- IATA code : LYX


EGMD - Lydd

CURRENT METAR :
  • 181650Z 08005KT 9999 FEW032 17/14 Q1014

EXPIRED METARs :
  • 181620Z 09006KT CAVOK 17/14 Q1014
  • 181550Z 09007KT CAVOK 18/14 Q1014
  • 181520Z 07005KT CAVOK 18/15 Q1014
  • 181450Z 06007KT 9999 FEW025 18/15 Q1014
  • 181420Z 07007KT 9999 -RA FEW020 18/14 Q1014
  • 181350Z 08007KT 9999 -RA FEW020 18/13 Q1014
  • 181320Z 08008KT 9999 FEW022 18/13 Q1014
  • 181250Z 08009KT 9999 FEW036 18/13 Q1013

TAF TAF EGMD
Valid from the 18 at 15:00 until the 19 at 00:00 UTC


181358Z 1815/1824 05010KT 9999 FEW035
PROB30
TEMPO 1815/1817 9000 -RA
ATIS : +44 1797 322 422



MET'MAP, your aeronautical weather chart ! - Copyright ORBIFLY December 2007 - Disclaimer

ORBIFLY MET'MAP TEAM :

Programming & Development : Alexandra Zaïnal
Original concept : Baudouin d'Aumeries
Technical & hardware support : Manuel Goepfert
Assistance : Marc-Olivier Méhu




SOURCES & CREDITS :

   NOAA